Berlin, North Dakota
Current Conditions -  °F | °C
As of 8:07 PM on Sunday 21 Dec 2014 (Local Time) from KJMS Reporting Station
Haze Haze  
Wind Chill: 22°   Ceiling: 200
Heat Index: 31°   Visibility: 0.75mi
Dew Point: 29°   Wind: 12mph
Humidity: 92%   Direction: 130°SE
Pressure: 29.49"   Gusts: NA
Location:  46.38°N, 98.49°W
Report Text: KJMS 220207Z AUTO 13010KT 3/4SM BR VV002 M01/M02 A2949 RMK AO2 T10061017
Loading
Personal Weather Stations






























Interactive Weather Map New forecast layout! Learn more

10-Day Weather Forecast

Advertisements
Track Severe Weather on mobile